KACP

Allen Parish Airport

Oakdale, Louisiana, USA
METAR KACP 271135Z AUTO 00000KT 5SM BR SCT095 BKN120 21/20 A2984 RMK AO2 T02060200
Observed Flight Rules
May-27 @ 11:35 UTC (31 minutes ago) Marginal Visual Flight Rules
Visibility Clouds Conditions
5 miles
  • Scattered at 9,500' AGL
  • Broken at 12,000' AGL
  • Mist
Temperatures Readings
Current 21°C / 70°F
Dewpoint 20°C / 68°F
Humidity 94%
Altimeter 29.84" Hg
Pressure 1010 hPa
Elevation 33
METAR KACP 271135Z AUTO 00000KT 5SM BR SCT095 BKN120 21/20 A2984 RMK AO2 T02060200
Observed Flight Rules
May-27 @ 11:35 UTC
(31 minutes ago)
MVFR
Clouds
  • Scattered at 9,500' AGL
  • Broken at 12,000' AGL
Conditions
  • Mist
Temperature Dewpoint
21°C / 70°F 20°C / 68°F
Humidity Altimeter Pressure
94% 29.84" Hg 1010 hPa